Terminal Aerodrome Forecast
Issued by NWS

Home | Current Version | Previous Version | Text Only | Print | Product List | Glossary On
Versions: 1 2 3 4 5 6 7 8 9 10 11 12
000
FTUS45 KRIW 260500
TAFCPR
TAF
KCPR 260527Z 2606/2706 34009KT P6SM FEW150
     FM261000 VRB05KT P6SM SKC
     FM261900 34011KT P6SM FEW200
     FM270200 03013KT P6SM FEW120 SCT200=

USA.gov is the U.S. government's official web portal to all federal, state and local government web resources and services.